createdAt,value
2019-01-23T00:00:10.425Z,43.55
2019-01-23T00:02:39.208Z,39.65
2019-01-23T00:05:08.216Z,45.92
2019-01-23T00:07:37.230Z,44.90
2019-01-23T00:10:06.659Z,40.60
2019-01-23T00:12:35.575Z,45.40
2019-01-23T00:15:04.944Z,43.78
2019-01-23T00:17:33.948Z,47.48
2019-01-23T00:20:02.809Z,46.95
2019-01-23T00:22:32.072Z,38.08
2019-01-23T00:25:00.908Z,43.08
2019-01-23T00:27:29.976Z,44.00
2019-01-23T00:29:58.803Z,40.38
2019-01-23T00:32:27.961Z,41.30
2019-01-23T00:34:56.858Z,37.58
2019-01-23T00:37:25.623Z,41.18
2019-01-23T00:39:54.461Z,41.75
2019-01-23T00:42:23.353Z,43.45
2019-01-23T00:44:52.508Z,40.03
2019-01-23T00:47:21.443Z,46.10
2019-01-23T00:49:50.420Z,43.80
2019-01-23T00:52:19.328Z,44.38
2019-01-23T00:54:48.335Z,44.08
2019-01-23T00:57:17.332Z,43.70
2019-01-23T00:59:46.288Z,42.27
2019-01-23T01:02:15.267Z,46.88
2019-01-23T01:04:44.235Z,43.17
2019-01-23T01:07:13.220Z,43.38
2019-01-23T01:09:42.192Z,37.30
2019-01-23T01:12:11.538Z,39.15
2019-01-23T01:14:40.820Z,42.27
2019-01-23T01:17:09.820Z,42.20
2019-01-23T01:19:38.829Z,42.85
2019-01-23T01:22:07.815Z,43.75
2019-01-23T01:24:36.807Z,41.77
2019-01-23T01:27:05.798Z,45.75
2019-01-23T01:29:34.688Z,43.92
2019-01-23T01:32:03.672Z,41.92
2019-01-23T01:34:32.884Z,45.28
2019-01-23T01:37:02.193Z,46.95
2019-01-23T01:39:31.185Z,43.73
2019-01-23T01:42:00.161Z,44.98
2019-01-23T01:44:29.244Z,47.83
2019-01-23T01:46:58.362Z,44.08
2019-01-23T01:49:27.295Z,42.80
2019-01-23T01:51:56.105Z,44.93
2019-01-23T01:54:24.932Z,45.58
2019-01-23T01:56:53.828Z,43.85
2019-01-23T01:59:22.736Z,40.98
2019-01-23T02:01:51.764Z,47.95
2019-01-23T02:04:20.700Z,38.80
2019-01-23T02:06:49.714Z,44.75
2019-01-23T02:09:18.544Z,41.02
2019-01-23T02:11:47.840Z,40.50
2019-01-23T02:14:16.678Z,31.10
2019-01-23T02:16:45.772Z,39.70
2019-01-23T02:19:15.074Z,39.75
2019-01-23T02:21:44.103Z,38.02
2019-01-23T02:24:13.040Z,41.25
2019-01-23T02:26:41.953Z,42.08
2019-01-23T02:29:10.848Z,39.27
2019-01-23T02:31:40.016Z,41.15
2019-01-23T02:34:09.013Z,40.55
2019-01-23T02:36:37.900Z,40.38
2019-01-23T02:39:08.437Z,42.25
2019-01-23T02:41:37.320Z,41.55
2019-01-23T02:44:06.302Z,46.30
2019-01-23T02:46:35.156Z,42.95
2019-01-23T02:49:04.192Z,44.35
2019-01-23T02:51:33.109Z,38.50
2019-01-23T02:54:01.995Z,44.08
2019-01-23T02:56:30.856Z,42.27
2019-01-23T02:58:59.736Z,47.15
2019-01-23T03:01:28.660Z,43.92
2019-01-23T03:03:57.684Z,47.75
2019-01-23T03:06:26.597Z,46.13
2019-01-23T03:08:55.380Z,43.95
2019-01-23T03:11:24.269Z,44.53
2019-01-23T03:13:53.300Z,46.88
2019-01-23T03:16:22.233Z,49.93
2019-01-23T03:18:51.182Z,48.35
2019-01-23T03:21:20.071Z,55.12
2019-01-23T03:23:48.975Z,49.95
2019-01-23T03:26:18.005Z,51.90
2019-01-23T03:28:46.896Z,54.10
2019-01-23T03:31:15.797Z,48.23
2019-01-23T03:33:44.676Z,49.30
2019-01-23T03:36:13.740Z,52.88
2019-01-23T03:38:42.520Z,43.60
2019-01-23T03:41:11.620Z,49.00
2019-01-23T03:43:40.580Z,47.43
2019-01-23T03:46:09.569Z,50.95
2019-01-23T03:48:38.452Z,48.75
2019-01-23T03:51:07.269Z,53.20
2019-01-23T03:53:36.255Z,51.37
2019-01-23T03:56:05.942Z,51.05
2019-01-23T03:58:35.036Z,50.80
2019-01-23T04:01:04.124Z,48.98
2019-01-23T04:03:33.186Z,47.38
2019-01-23T04:06:02.110Z,54.18
2019-01-23T04:08:30.953Z,51.85
2019-01-23T04:11:00.213Z,48.95
2019-01-23T04:13:29.076Z,54.48
2019-01-23T04:15:57.964Z,52.30
2019-01-23T04:18:26.804Z,47.45
2019-01-23T04:20:55.852Z,52.25
2019-01-23T04:23:24.678Z,45.78
2019-01-23T04:25:53.465Z,49.60
2019-01-23T04:28:22.568Z,47.75
2019-01-23T04:30:51.400Z,50.23
2019-01-23T04:33:20.296Z,54.30
2019-01-23T04:35:49.295Z,51.75
2019-01-23T04:38:18.176Z,46.48
2019-01-23T04:40:47.374Z,43.42
2019-01-23T04:43:16.490Z,45.75
2019-01-23T04:45:45.504Z,47.75
2019-01-23T04:48:14.432Z,51.13
2019-01-23T04:51:01.452Z,49.53
2019-01-23T04:53:34.574Z,49.08
2019-01-23T04:56:03.496Z,48.33
2019-01-23T04:58:32.468Z,55.15
2019-01-23T05:01:01.524Z,44.25
2019-01-23T05:03:30.456Z,53.02
2019-01-23T05:05:59.341Z,48.25
2019-01-23T05:08:28.241Z,50.95
2019-01-23T05:10:57.160Z,49.33
2019-01-23T05:13:26.448Z,45.85
2019-01-23T05:15:55.429Z,46.88
2019-01-23T05:18:24.556Z,51.20
2019-01-23T05:20:53.515Z,53.23
2019-01-23T05:23:22.517Z,47.75
2019-01-23T05:25:51.420Z,49.33
2019-01-23T05:28:20.274Z,49.55
2019-01-23T05:30:49.210Z,55.20
2019-01-23T05:33:18.004Z,46.80
2019-01-23T05:35:46.945Z,45.38
2019-01-23T05:38:15.814Z,43.02
2019-01-23T05:40:44.722Z,49.13
2019-01-23T05:43:13.648Z,50.25
2019-01-23T05:45:42.461Z,48.28
2019-01-23T05:48:11.316Z,52.45
2019-01-23T05:50:40.272Z,49.58
2019-01-23T05:53:09.161Z,49.67
2019-01-23T05:55:38.189Z,46.18
2019-01-23T05:58:07.070Z,47.83
2019-01-23T06:00:35.984Z,54.08
2019-01-23T06:03:04.972Z,50.15
2019-01-23T06:05:33.861Z,58.60
2019-01-23T06:08:02.671Z,53.58
2019-01-23T06:10:31.652Z,59.45
2019-01-23T06:13:00.596Z,56.95
2019-01-23T06:15:29.792Z,54.63
2019-01-23T06:17:58.975Z,54.18
2019-01-23T06:20:27.999Z,52.33
2019-01-23T06:22:57.352Z,52.65
2019-01-23T06:25:26.309Z,57.17
2019-01-23T06:27:55.576Z,69.22
2019-01-23T06:30:26.920Z,76.80
2019-01-23T06:32:56.064Z,79.75
2019-01-23T06:35:24.993Z,82.82
2019-01-23T06:37:54.076Z,71.12
2019-01-23T06:40:23.100Z,66.20
2019-01-23T06:42:52.184Z,68.65
2019-01-23T06:45:21.271Z,57.90
2019-01-23T06:47:50.508Z,53.38
2019-01-23T06:50:21.324Z,62.88
2019-01-23T06:52:50.636Z,54.10
2019-01-23T06:55:20.231Z,53.23
2019-01-23T06:57:49.215Z,59.23
2019-01-23T07:00:20.697Z,54.03
2019-01-23T07:02:50.064Z,57.03
2019-01-23T07:05:19.138Z,53.02
2019-01-23T07:07:48.109Z,47.75
2019-01-23T07:10:25.272Z,52.35
2019-01-23T07:12:54.585Z,49.38
2019-01-23T07:15:23.652Z,53.95
2019-01-23T07:17:52.556Z,52.15
2019-01-23T07:20:23.678Z,53.52
2019-01-23T07:22:52.546Z,43.42
2019-01-23T07:25:21.700Z,48.13
2019-01-23T07:27:50.683Z,49.73
2019-01-23T07:30:37.804Z,52.08
2019-01-23T07:33:07.201Z,50.73
2019-01-23T07:35:36.516Z,54.67
2019-01-23T07:38:05.741Z,52.33
2019-01-23T07:40:34.652Z,50.35
2019-01-23T07:43:03.560Z,49.63
2019-01-23T07:45:32.807Z,54.58
2019-01-23T07:48:01.816Z,57.90
2019-01-23T07:50:30.708Z,54.25
2019-01-23T07:53:00.004Z,52.48
2019-01-23T07:55:29.102Z,59.10
2019-01-23T07:57:58.100Z,60.85
2019-01-23T08:00:31.619Z,54.98
2019-01-23T08:02:58.332Z,53.55
2019-01-23T08:05:27.564Z,52.60
2019-01-23T08:07:56.437Z,51.35
2019-01-23T08:10:25.996Z,56.02
2019-01-23T08:12:55.052Z,52.67
2019-01-23T08:15:26.267Z,53.98
2019-01-23T08:17:55.160Z,51.88
2019-01-23T08:20:24.742Z,54.33
2019-01-23T08:22:53.856Z,68.78
2019-01-23T08:25:22.947Z,49.55
2019-01-23T08:27:51.923Z,45.25
2019-01-23T08:30:21.251Z,53.02
2019-01-23T08:32:50.436Z,46.80
2019-01-23T08:35:20.028Z,50.35
2019-01-23T08:37:49.328Z,51.15
2019-01-23T08:40:18.661Z,51.13
2019-01-23T08:42:47.676Z,49.93
2019-01-23T08:45:17.340Z,45.33
2019-01-23T08:47:46.439Z,48.98
2019-01-23T08:50:24.390Z,53.17
2019-01-23T08:52:53.790Z,48.48
2019-01-23T08:55:23.014Z,56.70
2019-01-23T08:57:52.164Z,49.40
2019-01-23T09:00:21.156Z,52.40
2019-01-23T09:02:50.137Z,55.00
2019-01-23T09:05:19.312Z,48.28
2019-01-23T09:07:48.345Z,45.73
2019-01-23T09:10:19.380Z,45.75
2019-01-23T09:12:48.368Z,44.93
2019-01-23T09:15:17.380Z,49.35
2019-01-23T09:17:46.347Z,46.58
2019-01-23T09:20:16.380Z,47.38
2019-01-23T09:22:45.316Z,52.70
2019-01-23T09:25:16.524Z,43.98
2019-01-23T09:27:45.892Z,49.18
2019-01-23T09:30:21.029Z,49.25
2019-01-23T09:33:40.524Z,49.77
2019-01-23T09:36:51.200Z,43.87
2019-01-23T09:39:37.133Z,50.65
2019-01-23T09:42:21.737Z,45.08
2019-01-23T09:45:33.628Z,42.93
2019-01-23T09:48:52.585Z,46.70
2019-01-23T09:52:08.353Z,42.90
2019-01-23T09:54:37.242Z,43.70
2019-01-23T09:57:06.193Z,47.00
2019-01-23T09:59:35.068Z,42.35
2019-01-23T10:02:04.460Z,43.40
2019-01-23T10:04:33.443Z,44.05
2019-01-23T10:07:02.272Z,47.58
2019-01-23T10:09:31.253Z,48.63
2019-01-23T10:12:00.155Z,43.60
2019-01-23T10:14:29.476Z,41.80
2019-01-23T10:16:58.476Z,45.65
2019-01-23T10:19:27.500Z,45.85
2019-01-23T10:21:56.465Z,44.67
2019-01-23T10:24:25.359Z,40.28
2019-01-23T10:26:54.348Z,42.93
2019-01-23T10:29:23.214Z,47.50
2019-01-23T10:31:52.217Z,46.90
2019-01-23T10:34:21.032Z,44.80
2019-01-23T10:36:50.328Z,44.45
2019-01-23T10:39:19.248Z,44.83
2019-01-23T10:41:48.094Z,41.00
2019-01-23T10:44:17.004Z,42.70
2019-01-23T10:46:45.994Z,41.45
2019-01-23T10:49:14.988Z,44.15
2019-01-23T10:51:43.868Z,46.02
2019-01-23T10:54:12.853Z,41.75
2019-01-23T10:56:41.836Z,43.68
2019-01-23T10:59:10.841Z,45.10
2019-01-23T11:01:39.840Z,44.73
2019-01-23T11:04:09.000Z,46.48
2019-01-23T11:06:38.055Z,45.60
2019-01-23T11:09:08.729Z,42.62
2019-01-23T11:11:37.675Z,43.13
2019-01-23T11:14:06.846Z,45.70
2019-01-23T11:16:35.804Z,41.25
2019-01-23T11:19:05.080Z,46.30
2019-01-23T11:21:34.332Z,43.38
2019-01-23T11:24:03.868Z,43.83
2019-01-23T11:26:32.909Z,44.30
2019-01-23T11:29:02.208Z,43.48
2019-01-23T11:31:31.478Z,45.58
2019-01-23T11:34:00.368Z,41.80
2019-01-23T11:36:29.340Z,43.68
2019-01-23T11:38:58.344Z,39.15
2019-01-23T11:41:27.344Z,42.05
2019-01-23T11:43:56.747Z,41.40
2019-01-23T11:46:25.654Z,41.63
2019-01-23T11:48:54.576Z,39.85
2019-01-23T11:51:23.461Z,46.60
2019-01-23T11:53:52.348Z,44.88
2019-01-23T11:56:21.224Z,42.85
2019-01-23T11:58:50.072Z,40.58
2019-01-23T12:01:19.077Z,42.38
2019-01-23T12:03:48.047Z,48.10
2019-01-23T12:06:17.006Z,52.38
2019-01-23T12:08:45.884Z,43.28
2019-01-23T12:11:15.072Z,40.95
2019-01-23T12:13:44.024Z,41.13
2019-01-23T12:16:12.927Z,38.20
2019-01-23T12:18:41.776Z,39.60
2019-01-23T12:21:10.878Z,42.55
2019-01-23T12:23:39.880Z,41.83
2019-01-23T12:26:08.861Z,37.08
2019-01-23T12:28:37.633Z,40.28
2019-01-23T12:31:06.624Z,38.00
2019-01-23T12:33:35.480Z,39.53
2019-01-23T12:36:04.536Z,38.48
2019-01-23T12:38:33.420Z,38.05
2019-01-23T12:41:02.401Z,38.53
2019-01-23T12:43:31.331Z,36.75
2019-01-23T12:46:00.336Z,38.20
2019-01-23T12:48:29.473Z,40.52
2019-01-23T12:50:58.401Z,40.48
2019-01-23T12:53:27.556Z,42.38
2019-01-23T12:55:56.472Z,41.02
2019-01-23T12:58:25.530Z,43.23
2019-01-23T13:00:54.456Z,39.95
2019-01-23T13:03:23.794Z,41.08
2019-01-23T13:05:52.748Z,41.80
2019-01-23T13:08:21.940Z,38.35
2019-01-23T13:10:50.921Z,37.17
2019-01-23T13:13:19.900Z,34.33
2019-01-23T13:15:48.863Z,37.42
2019-01-23T13:18:17.724Z,37.58
2019-01-23T13:20:46.766Z,38.35
2019-01-23T13:23:19.673Z,34.98
2019-01-23T13:25:46.239Z,40.85
2019-01-23T13:28:15.096Z,34.63
2019-01-23T13:30:44.305Z,40.98
2019-01-23T13:33:13.688Z,35.78
2019-01-23T13:35:42.560Z,38.73
2019-01-23T13:38:14.462Z,36.45
2019-01-23T13:40:43.780Z,37.28
2019-01-23T13:43:12.796Z,39.25
2019-01-23T13:45:41.867Z,37.98
2019-01-23T13:48:11.608Z,35.78
2019-01-23T13:50:40.532Z,38.55
2019-01-23T13:53:09.544Z,40.03
2019-01-23T13:55:38.384Z,35.10
2019-01-23T13:58:07.664Z,37.60
2019-01-23T14:00:40.179Z,35.68
2019-01-23T14:03:09.588Z,38.00
2019-01-23T14:05:38.478Z,35.85
2019-01-23T14:08:08.744Z,34.98
2019-01-23T14:10:37.828Z,37.65
2019-01-23T14:13:07.149Z,39.20
2019-01-23T14:15:37.621Z,39.30
2019-01-23T14:18:07.256Z,41.75
2019-01-23T14:20:36.829Z,41.10
2019-01-23T14:23:06.188Z,35.58
2019-01-23T14:25:35.148Z,36.88
2019-01-23T14:28:04.402Z,38.90
2019-01-23T14:30:35.920Z,34.30
2019-01-23T14:33:05.202Z,41.75
2019-01-23T14:35:35.348Z,37.25
2019-01-23T14:38:04.740Z,39.23
2019-01-23T14:40:33.540Z,41.30
2019-01-23T14:43:02.557Z,39.78
2019-01-23T14:45:31.480Z,41.63
2019-01-23T14:48:00.401Z,41.08
2019-01-23T14:50:29.357Z,37.05
2019-01-23T14:52:58.395Z,38.17
2019-01-23T14:55:27.231Z,41.83
2019-01-23T14:57:56.518Z,43.73
2019-01-23T15:00:26.764Z,39.58
2019-01-23T15:02:56.184Z,35.92
2019-01-23T15:05:25.076Z,39.92
2019-01-23T15:07:54.024Z,41.00
2019-01-23T15:10:25.372Z,38.53
2019-01-23T15:12:54.443Z,40.92
2019-01-23T15:15:23.588Z,38.50
2019-01-23T15:17:52.915Z,45.10
2019-01-23T15:20:24.233Z,46.10
2019-01-23T15:22:53.156Z,41.02
2019-01-23T15:25:22.352Z,40.40
2019-01-23T15:27:51.313Z,39.27
2019-01-23T15:30:21.013Z,45.40
2019-01-23T15:32:49.940Z,44.30
2019-01-23T15:35:20.688Z,43.78
2019-01-23T15:37:49.684Z,43.48
2019-01-23T15:40:21.213Z,44.08
2019-01-23T15:42:50.170Z,44.98
2019-01-23T15:45:19.124Z,45.63
2019-01-23T15:47:48.144Z,44.73
2019-01-23T15:50:19.580Z,48.95
2019-01-23T15:52:48.556Z,45.15
2019-01-23T15:55:18.808Z,47.43
2019-01-23T15:57:47.746Z,51.02
2019-01-23T16:00:19.217Z,47.40
2019-01-23T16:02:48.724Z,43.08
2019-01-23T16:05:18.258Z,43.65
2019-01-23T16:07:47.220Z,43.90
2019-01-23T16:10:18.576Z,48.58
2019-01-23T16:12:47.501Z,47.33
2019-01-23T16:15:17.788Z,41.42
2019-01-23T16:17:46.783Z,42.10
2019-01-23T16:20:15.790Z,41.73
2019-01-23T16:22:45.129Z,40.23
2019-01-23T16:25:15.219Z,47.62
2019-01-23T16:27:44.344Z,41.95
2019-01-23T16:30:19.223Z,42.23
2019-01-23T16:32:48.201Z,41.05
2019-01-23T16:35:17.176Z,46.28
2019-01-23T16:37:46.485Z,47.75
2019-01-23T16:40:15.513Z,44.93
2019-01-23T16:42:44.681Z,46.33
2019-01-23T16:45:14.744Z,49.20
2019-01-23T16:47:43.804Z,47.05
2019-01-23T16:50:15.591Z,40.95
2019-01-23T16:52:44.990Z,45.45
2019-01-23T16:55:14.652Z,47.20
2019-01-23T16:57:44.254Z,46.33
2019-01-23T17:00:16.409Z,52.23
2019-01-23T17:02:45.374Z,45.35
2019-01-23T17:05:17.961Z,44.63
2019-01-23T17:07:47.844Z,49.30
2019-01-23T17:10:18.349Z,47.15
2019-01-23T17:12:47.324Z,46.45
2019-01-23T17:15:17.016Z,50.90
2019-01-23T17:17:46.908Z,46.15
2019-01-23T17:20:19.924Z,48.40
2019-01-23T17:22:49.352Z,43.63
2019-01-23T17:25:18.348Z,48.80
2019-01-23T17:27:47.543Z,48.78
2019-01-23T17:30:17.247Z,46.95
2019-01-23T17:32:46.577Z,50.50
2019-01-23T17:35:17.156Z,50.03
2019-01-23T17:37:46.090Z,48.20
2019-01-23T17:40:17.198Z,50.15
2019-01-23T17:42:46.503Z,49.65
2019-01-23T17:45:23.746Z,53.85
2019-01-23T17:47:52.969Z,52.15
2019-01-23T17:50:22.520Z,51.98
2019-01-23T17:52:52.253Z,52.60
2019-01-23T17:55:40.771Z,53.38
2019-01-23T17:58:12.085Z,49.35
2019-01-23T18:00:47.268Z,50.75
2019-01-23T18:03:16.295Z,51.80
2019-01-23T18:05:51.063Z,49.42
2019-01-23T18:08:15.830Z,53.48
2019-01-23T18:10:45.044Z,50.23
2019-01-23T18:13:13.919Z,48.50
2019-01-23T18:15:42.844Z,47.60
2019-01-23T18:18:12.172Z,53.92
2019-01-23T18:20:41.261Z,48.00
2019-01-23T18:23:10.248Z,47.88
2019-01-23T18:25:39.229Z,45.88
2019-01-23T18:28:08.364Z,52.80
2019-01-23T18:30:41.314Z,48.33
2019-01-23T18:33:12.983Z,48.25
2019-01-23T18:36:02.424Z,49.20
2019-01-23T18:38:41.852Z,46.20
2019-01-23T18:41:50.452Z,49.38
2019-01-23T18:44:59.345Z,45.73
2019-01-23T18:48:24.489Z,52.00
2019-01-23T18:51:36.692Z,43.50
2019-01-23T18:54:05.972Z,45.80
2019-01-23T18:56:35.228Z,47.13
2019-01-23T18:59:04.916Z,47.95
2019-01-23T19:01:33.990Z,47.73
2019-01-23T19:04:03.664Z,43.98
2019-01-23T19:06:32.712Z,45.88
2019-01-23T19:09:01.617Z,42.75
2019-01-23T19:11:30.723Z,46.15
2019-01-23T19:13:59.720Z,40.08
2019-01-23T19:16:28.828Z,47.38
2019-01-23T19:18:57.760Z,44.03
2019-01-23T19:21:26.792Z,44.60
2019-01-23T19:23:55.668Z,43.58
2019-01-23T19:26:25.533Z,47.53
2019-01-23T19:28:54.508Z,44.70
2019-01-23T19:31:23.504Z,43.68
2019-01-23T19:33:52.812Z,41.63
2019-01-23T19:36:21.732Z,38.95
2019-01-23T19:38:50.532Z,39.95
2019-01-23T19:41:20.627Z,38.95
2019-01-23T19:43:49.965Z,39.58
2019-01-23T19:46:18.832Z,43.60
2019-01-23T19:48:48.176Z,39.70
2019-01-23T19:51:17.584Z,37.40
2019-01-23T19:53:46.566Z,39.70
2019-01-23T19:56:15.468Z,43.33
2019-01-23T19:58:44.264Z,42.38
2019-01-23T20:01:13.121Z,39.35
2019-01-23T20:03:42.188Z,48.90
2019-01-23T20:06:11.280Z,38.90
2019-01-23T20:08:40.483Z,41.70
2019-01-23T20:11:09.380Z,39.85
2019-01-23T20:13:38.256Z,37.90
2019-01-23T20:16:07.180Z,36.77
2019-01-23T20:18:36.225Z,38.48
2019-01-23T20:21:05.208Z,43.55
2019-01-23T20:23:34.212Z,38.00
2019-01-23T20:26:03.361Z,42.45
2019-01-23T20:28:32.552Z,43.85
2019-01-23T20:31:01.452Z,41.95
2019-01-23T20:33:30.548Z,47.88
2019-01-23T20:36:00.051Z,42.93
2019-01-23T20:38:28.976Z,39.55
2019-01-23T20:40:57.920Z,40.50
2019-01-23T20:43:27.128Z,45.65
2019-01-23T20:45:56.096Z,43.30
2019-01-23T20:48:25.125Z,41.15
2019-01-23T20:50:54.272Z,43.33
2019-01-23T20:53:23.368Z,42.33
2019-01-23T20:55:52.300Z,40.48
2019-01-23T20:58:21.535Z,41.48
2019-01-23T21:00:50.600Z,42.40
2019-01-23T21:03:19.616Z,44.63
2019-01-23T21:05:48.592Z,42.17
2019-01-23T21:08:17.673Z,41.18
2019-01-23T21:10:46.560Z,42.23
2019-01-23T21:13:15.396Z,39.40
2019-01-23T21:15:44.368Z,39.27
2019-01-23T21:18:13.352Z,44.18
2019-01-23T21:20:43.271Z,44.85
2019-01-23T21:23:14.489Z,40.00
2019-01-23T21:25:43.452Z,43.10
2019-01-23T21:28:12.444Z,39.00
2019-01-23T21:30:41.428Z,37.53
2019-01-23T21:33:10.436Z,43.02
2019-01-23T21:35:39.399Z,37.83
2019-01-23T21:38:08.329Z,40.60
2019-01-23T21:40:37.148Z,38.90
2019-01-23T21:43:06.172Z,36.90
2019-01-23T21:45:37.297Z,39.67
2019-01-23T21:48:07.484Z,38.42
2019-01-23T21:50:36.392Z,37.63
2019-01-23T21:53:05.697Z,38.75
2019-01-23T21:55:34.656Z,42.93
2019-01-23T21:58:03.707Z,40.05
2019-01-23T22:00:35.471Z,41.05
2019-01-23T22:03:05.212Z,40.25
2019-01-23T22:05:34.110Z,37.17
2019-01-23T22:08:02.985Z,37.45
2019-01-23T22:10:32.100Z,41.58
2019-01-23T22:13:01.298Z,37.85
2019-01-23T22:15:30.274Z,41.68
2019-01-23T22:17:59.252Z,38.53
2019-01-23T22:20:28.296Z,41.10
2019-01-23T22:22:57.209Z,40.65
2019-01-23T22:25:26.852Z,38.75
2019-01-23T22:27:55.809Z,38.35
2019-01-23T22:30:26.740Z,39.65
2019-01-23T22:32:55.849Z,39.73
2019-01-23T22:35:25.016Z,43.68
2019-01-23T22:37:54.007Z,37.60
2019-01-23T22:40:23.088Z,44.03
2019-01-23T22:42:52.066Z,39.45
2019-01-23T22:45:21.811Z,39.40
2019-01-23T22:47:51.027Z,39.95
2019-01-23T22:50:22.029Z,38.15
2019-01-23T22:52:50.996Z,41.15
2019-01-23T22:55:20.648Z,40.20
2019-01-23T22:57:49.984Z,38.33
2019-01-23T23:00:44.045Z,44.48
2019-01-23T23:03:15.868Z,39.42
2019-01-23T23:05:44.868Z,38.70
2019-01-23T23:08:13.789Z,38.80
2019-01-23T23:10:42.748Z,40.38
2019-01-23T23:13:11.767Z,41.23
2019-01-23T23:15:40.724Z,39.42
2019-01-23T23:18:09.579Z,41.68
2019-01-23T23:20:38.454Z,42.80
2019-01-23T23:23:07.920Z,44.00
2019-01-23T23:25:36.717Z,40.30
2019-01-23T23:28:06.257Z,43.28
2019-01-23T23:30:35.208Z,44.42
2019-01-23T23:33:05.070Z,42.10
2019-01-23T23:35:33.969Z,43.20
2019-01-23T23:38:02.996Z,41.05
2019-01-23T23:40:31.912Z,40.28
2019-01-23T23:43:00.904Z,39.18
2019-01-23T23:45:29.924Z,44.70
2019-01-23T23:47:58.756Z,40.80
2019-01-23T23:50:27.735Z,45.65
2019-01-23T23:52:56.703Z,39.95
2019-01-23T23:55:25.696Z,41.85
2019-01-23T23:57:54.588Z,39.78
